sensor_id;sensor_type;location;lat;lon;timestamp;P1;durP1;ratioP1;P2;durP2;ratioP2
26702;SDS011;14316;51.074;3.704;2022-09-17T00:02:16;4.70;;;1.42;;
26702;SDS011;14316;51.074;3.704;2022-09-17T00:04:42;11.45;;;1.70;;
26702;SDS011;14316;51.074;3.704;2022-09-17T00:07:08;10.95;;;2.00;;
26702;SDS011;14316;51.074;3.704;2022-09-17T00:09:33;9.55;;;1.77;;
26702;SDS011;14316;51.074;3.704;2022-09-17T00:11:59;9.25;;;1.98;;
26702;SDS011;14316;51.074;3.704;2022-09-17T00:14:25;9.80;;;2.20;;
26702;SDS011;14316;51.074;3.704;2022-09-17T00:16:50;7.63;;;1.85;;
26702;SDS011;14316;51.074;3.704;2022-09-17T00:19:20;10.43;;;1.95;;
26702;SDS011;14316;51.074;3.704;2022-09-17T00:21:47;8.50;;;1.98;;
26702;SDS011;14316;51.074;3.704;2022-09-17T00:24:13;12.55;;;2.35;;
26702;SDS011;14316;51.074;3.704;2022-09-17T00:26:39;10.13;;;2.25;;
26702;SDS011;14316;51.074;3.704;2022-09-17T00:29:06;10.02;;;2.28;;
26702;SDS011;14316;51.074;3.704;2022-09-17T00:31:32;11.50;;;2.45;;
26702;SDS011;14316;51.074;3.704;2022-09-17T00:33:59;12.32;;;2.33;;
26702;SDS011;14316;51.074;3.704;2022-09-17T00:36:26;15.13;;;2.33;;
26702;SDS011;14316;51.074;3.704;2022-09-17T00:38:52;12.30;;;2.42;;
26702;SDS011;14316;51.074;3.704;2022-09-17T00:41:19;12.07;;;2.00;;
26702;SDS011;14316;51.074;3.704;2022-09-17T00:43:49;13.70;;;2.47;;
26702;SDS011;14316;51.074;3.704;2022-09-17T00:46:33;13.02;;;2.53;;
26702;SDS011;14316;51.074;3.704;2022-09-17T00:49:22;16.48;;;2.65;;
26702;SDS011;14316;51.074;3.704;2022-09-17T00:51:54;16.02;;;3.40;;
26702;SDS011;14316;51.074;3.704;2022-09-17T00:54:26;13.18;;;2.30;;
26702;SDS011;14316;51.074;3.704;2022-09-17T00:56:52;18.80;;;2.97;;
26702;SDS011;14316;51.074;3.704;2022-09-17T00:59:18;18.23;;;2.90;;
26702;SDS011;14316;51.074;3.704;2022-09-17T01:01:46;13.13;;;2.60;;
26702;SDS011;14316;51.074;3.704;2022-09-17T01:04:20;12.77;;;2.97;;
26702;SDS011;14316;51.074;3.704;2022-09-17T01:09:57;16.92;;;3.25;;
26702;SDS011;14316;51.074;3.704;2022-09-17T01:18:31;22.77;;;3.72;;
26702;SDS011;14316;51.074;3.704;2022-09-17T01:33:02;15.57;;;3.22;;
26702;SDS011;14316;51.074;3.704;2022-09-17T01:35:51;17.63;;;4.13;;
26702;SDS011;14316;51.074;3.704;2022-09-17T01:44:38;15.35;;;3.28;;
26702;SDS011;14316;51.074;3.704;2022-09-17T01:47:09;15.43;;;3.15;;
26702;SDS011;14316;51.074;3.704;2022-09-17T01:49:41;20.05;;;3.45;;
26702;SDS011;14316;51.074;3.704;2022-09-17T01:52:08;23.08;;;3.90;;
26702;SDS011;14316;51.074;3.704;2022-09-17T01:54:39;21.42;;;3.88;;
26702;SDS011;14316;51.074;3.704;2022-09-17T01:57:21;13.68;;;3.20;;
26702;SDS011;14316;51.074;3.704;2022-09-17T01:59:55;20.65;;;3.88;;
26702;SDS011;14316;51.074;3.704;2022-09-17T02:02:29;23.83;;;3.42;;
26702;SDS011;14316;51.074;3.704;2022-09-17T02:05:02;19.30;;;3.80;;
26702;SDS011;14316;51.074;3.704;2022-09-17T02:07:31;20.35;;;3.88;;
26702;SDS011;14316;51.074;3.704;2022-09-17T02:10:04;21.20;;;3.42;;
26702;SDS011;14316;51.074;3.704;2022-09-17T02:12:44;19.65;;;3.65;;
26702;SDS011;14316;51.074;3.704;2022-09-17T02:15:17;14.50;;;3.08;;
26702;SDS011;14316;51.074;3.704;2022-09-17T02:17:48;19.23;;;3.35;;
26702;SDS011;14316;51.074;3.704;2022-09-17T02:20:19;19.65;;;3.45;;
26702;SDS011;14316;51.074;3.704;2022-09-17T02:22:56;18.88;;;2.95;;
26702;SDS011;14316;51.074;3.704;2022-09-17T02:25:35;19.65;;;3.50;;
26702;SDS011;14316;51.074;3.704;2022-09-17T02:28:12;16.75;;;3.13;;
26702;SDS011;14316;51.074;3.704;2022-09-17T02:30:47;16.92;;;3.65;;
26702;SDS011;14316;51.074;3.704;2022-09-17T02:33:13;14.77;;;3.42;;
26702;SDS011;14316;51.074;3.704;2022-09-17T02:35:40;18.73;;;3.72;;
26702;SDS011;14316;51.074;3.704;2022-09-17T02:38:07;12.80;;;2.83;;
26702;SDS011;14316;51.074;3.704;2022-09-17T02:40:44;20.23;;;3.50;;
26702;SDS011;14316;51.074;3.704;2022-09-17T03:02:24;17.35;;;3.00;;
26702;SDS011;14316;51.074;3.704;2022-09-17T03:05:16;16.92;;;3.33;;
26702;SDS011;14316;51.074;3.704;2022-09-17T03:07:44;22.65;;;2.95;;
26702;SDS011;14316;51.074;3.704;2022-09-17T03:10:10;22.58;;;4.32;;
26702;SDS011;14316;51.074;3.704;2022-09-17T03:12:36;18.70;;;3.30;;
26702;SDS011;14316;51.074;3.704;2022-09-17T03:15:02;16.90;;;2.90;;
26702;SDS011;14316;51.074;3.704;2022-09-17T03:17:29;17.80;;;2.72;;
26702;SDS011;14316;51.074;3.704;2022-09-17T03:19:55;18.05;;;3.78;;
26702;SDS011;14316;51.074;3.704;2022-09-17T03:22:20;15.85;;;3.22;;
26702;SDS011;14316;51.074;3.704;2022-09-17T03:24:46;19.73;;;3.08;;
26702;SDS011;14316;51.074;3.704;2022-09-17T03:27:12;17.08;;;3.10;;
26702;SDS011;14316;51.074;3.704;2022-09-17T03:29:38;14.70;;;2.70;;
26702;SDS011;14316;51.074;3.704;2022-09-17T03:32:04;15.70;;;2.75;;
26702;SDS011;14316;51.074;3.704;2022-09-17T03:34:30;17.20;;;2.88;;
26702;SDS011;14316;51.074;3.704;2022-09-17T03:36:56;14.88;;;2.50;;
26702;SDS011;14316;51.074;3.704;2022-09-17T03:39:22;14.35;;;2.40;;
26702;SDS011;14316;51.074;3.704;2022-09-17T03:41:48;12.75;;;2.45;;
26702;SDS011;14316;51.074;3.704;2022-09-17T03:44:13;11.45;;;2.53;;
26702;SDS011;14316;51.074;3.704;2022-09-17T03:46:39;13.68;;;2.60;;
26702;SDS011;14316;51.074;3.704;2022-09-17T03:49:05;10.13;;;2.45;;
26702;SDS011;14316;51.074;3.704;2022-09-17T03:51:31;12.85;;;2.63;;
26702;SDS011;14316;51.074;3.704;2022-09-17T03:53:57;13.18;;;2.10;;
26702;SDS011;14316;51.074;3.704;2022-09-17T03:56:23;12.43;;;2.53;;
26702;SDS011;14316;51.074;3.704;2022-09-17T03:58:48;9.65;;;2.50;;
26702;SDS011;14316;51.074;3.704;2022-09-17T04:01:15;11.55;;;2.00;;
26702;SDS011;14316;51.074;3.704;2022-09-17T04:03:40;11.98;;;2.35;;
26702;SDS011;14316;51.074;3.704;2022-09-17T04:06:06;11.13;;;1.70;;
26702;SDS011;14316;51.074;3.704;2022-09-17T04:08:32;8.43;;;2.22;;
26702;SDS011;14316;51.074;3.704;2022-09-17T04:10:58;7.20;;;2.00;;
26702;SDS011;14316;51.074;3.704;2022-09-17T04:13:24;9.68;;;1.88;;
26702;SDS011;14316;51.074;3.704;2022-09-17T04:15:50;8.18;;;2.03;;
26702;SDS011;14316;51.074;3.704;2022-09-17T04:18:16;11.07;;;2.90;;
26702;SDS011;14316;51.074;3.704;2022-09-17T04:20:42;7.70;;;1.85;;
26702;SDS011;14316;51.074;3.704;2022-09-17T04:23:08;15.02;;;2.45;;
26702;SDS011;14316;51.074;3.704;2022-09-17T04:25:36;10.88;;;2.08;;
26702;SDS011;14316;51.074;3.704;2022-09-17T04:28:01;12.77;;;3.03;;
26702;SDS011;14316;51.074;3.704;2022-09-17T04:30:28;12.27;;;2.30;;
26702;SDS011;14316;51.074;3.704;2022-09-17T04:32:54;11.15;;;2.67;;
26702;SDS011;14316;51.074;3.704;2022-09-17T04:35:19;14.00;;;2.38;;
26702;SDS011;14316;51.074;3.704;2022-09-17T04:37:50;10.98;;;2.55;;
26702;SDS011;14316;51.074;3.704;2022-09-17T04:42:43;14.18;;;3.15;;
26702;SDS011;14316;51.074;3.704;2022-09-17T04:45:09;12.30;;;2.30;;
26702;SDS011;14316;51.074;3.704;2022-09-17T04:47:37;13.20;;;2.50;;
26702;SDS011;14316;51.074;3.704;2022-09-17T04:50:04;12.93;;;2.55;;
26702;SDS011;14316;51.074;3.704;2022-09-17T04:52:30;13.75;;;2.08;;
26702;SDS011;14316;51.074;3.704;2022-09-17T04:54:57;15.20;;;2.67;;
26702;SDS011;14316;51.074;3.704;2022-09-17T04:57:23;9.23;;;2.03;;
26702;SDS011;14316;51.074;3.704;2022-09-17T04:59:49;10.15;;;2.63;;
26702;SDS011;14316;51.074;3.704;2022-09-17T05:02:16;10.48;;;2.38;;
26702;SDS011;14316;51.074;3.704;2022-09-17T05:04:41;13.15;;;2.55;;
26702;SDS011;14316;51.074;3.704;2022-09-17T05:07:07;15.48;;;3.00;;
26702;SDS011;14316;51.074;3.704;2022-09-17T05:09:33;20.08;;;3.20;;
26702;SDS011;14316;51.074;3.704;2022-09-17T05:11:59;15.82;;;2.67;;
26702;SDS011;14316;51.074;3.704;2022-09-17T05:14:25;13.23;;;2.58;;
26702;SDS011;14316;51.074;3.704;2022-09-17T05:16:50;15.75;;;3.35;;
26702;SDS011;14316;51.074;3.704;2022-09-17T05:19:16;14.05;;;2.28;;
26702;SDS011;14316;51.074;3.704;2022-09-17T05:21:42;15.95;;;2.42;;
26702;SDS011;14316;51.074;3.704;2022-09-17T05:24:08;14.57;;;2.58;;
26702;SDS011;14316;51.074;3.704;2022-09-17T05:26:34;10.43;;;2.42;;
26702;SDS011;14316;51.074;3.704;2022-09-17T05:29:00;13.95;;;2.35;;
26702;SDS011;14316;51.074;3.704;2022-09-17T05:31:26;10.75;;;1.85;;
26702;SDS011;14316;51.074;3.704;2022-09-17T05:33:51;10.63;;;2.20;;
26702;SDS011;14316;51.074;3.704;2022-09-17T05:36:17;12.30;;;2.15;;
26702;SDS011;14316;51.074;3.704;2022-09-17T05:38:43;10.98;;;2.20;;
26702;SDS011;14316;51.074;3.704;2022-09-17T05:41:08;11.30;;;2.05;;
26702;SDS011;14316;51.074;3.704;2022-09-17T05:43:35;15.90;;;2.47;;
26702;SDS011;14316;51.074;3.704;2022-09-17T05:46:02;10.20;;;2.22;;
26702;SDS011;14316;51.074;3.704;2022-09-17T05:48:28;6.82;;;1.77;;
26702;SDS011;14316;51.074;3.704;2022-09-17T05:50:54;10.05;;;2.03;;
26702;SDS011;14316;51.074;3.704;2022-09-17T05:53:20;13.50;;;2.63;;
26702;SDS011;14316;51.074;3.704;2022-09-17T05:55:46;8.57;;;1.98;;
26702;SDS011;14316;51.074;3.704;2022-09-17T05:58:15;10.95;;;2.47;;
26702;SDS011;14316;51.074;3.704;2022-09-17T06:00:43;8.13;;;2.20;;
26702;SDS011;14316;51.074;3.704;2022-09-17T06:03:11;9.07;;;1.90;;
26702;SDS011;14316;51.074;3.704;2022-09-17T06:05:38;10.88;;;2.10;;
26702;SDS011;14316;51.074;3.704;2022-09-17T06:08:04;12.55;;;2.65;;
26702;SDS011;14316;51.074;3.704;2022-09-17T06:10:29;7.53;;;1.95;;
26702;SDS011;14316;51.074;3.704;2022-09-17T06:12:58;7.93;;;2.03;;
26702;SDS011;14316;51.074;3.704;2022-09-17T06:15:25;9.85;;;1.92;;
26702;SDS011;14316;51.074;3.704;2022-09-17T06:17:51;10.98;;;2.10;;
26702;SDS011;14316;51.074;3.704;2022-09-17T06:20:17;8.40;;;1.65;;
26702;SDS011;14316;51.074;3.704;2022-09-17T06:22:44;5.78;;;1.80;;
26702;SDS011;14316;51.074;3.704;2022-09-17T06:25:10;8.93;;;2.00;;
26702;SDS011;14316;51.074;3.704;2022-09-17T06:27:36;9.20;;;1.85;;
26702;SDS011;14316;51.074;3.704;2022-09-17T06:30:02;10.98;;;2.33;;
26702;SDS011;14316;51.074;3.704;2022-09-17T06:32:31;8.48;;;1.85;;
26702;SDS011;14316;51.074;3.704;2022-09-17T06:34:57;10.93;;;2.30;;
26702;SDS011;14316;51.074;3.704;2022-09-17T06:37:26;10.73;;;2.03;;
26702;SDS011;14316;51.074;3.704;2022-09-17T06:39:53;13.25;;;2.30;;
26702;SDS011;14316;51.074;3.704;2022-09-17T06:42:18;12.77;;;2.55;;
26702;SDS011;14316;51.074;3.704;2022-09-17T06:44:45;12.80;;;2.28;;
26702;SDS011;14316;51.074;3.704;2022-09-17T06:47:10;13.00;;;2.08;;
26702;SDS011;14316;51.074;3.704;2022-09-17T06:49:36;15.05;;;2.30;;
26702;SDS011;14316;51.074;3.704;2022-09-17T06:52:02;13.07;;;2.65;;
26702;SDS011;14316;51.074;3.704;2022-09-17T06:54:28;14.93;;;2.65;;
26702;SDS011;14316;51.074;3.704;2022-09-17T06:56:55;6.75;;;1.83;;
26702;SDS011;14316;51.074;3.704;2022-09-17T06:59:20;6.57;;;2.03;;
26702;SDS011;14316;51.074;3.704;2022-09-17T07:01:46;9.68;;;2.22;;
26702;SDS011;14316;51.074;3.704;2022-09-17T07:04:12;12.13;;;2.03;;
26702;SDS011;14316;51.074;3.704;2022-09-17T07:06:38;10.40;;;1.77;;
26702;SDS011;14316;51.074;3.704;2022-09-17T07:09:04;10.10;;;2.22;;
26702;SDS011;14316;51.074;3.704;2022-09-17T07:11:31;8.95;;;1.83;;
26702;SDS011;14316;51.074;3.704;2022-09-17T07:13:57;5.70;;;1.30;;
26702;SDS011;14316;51.074;3.704;2022-09-17T07:16:23;3.97;;;1.08;;
26702;SDS011;14316;51.074;3.704;2022-09-17T07:18:50;4.68;;;1.13;;
26702;SDS011;14316;51.074;3.704;2022-09-17T07:21:16;5.68;;;1.40;;
26702;SDS011;14316;51.074;3.704;2022-09-17T07:23:42;3.85;;;1.00;;
26702;SDS011;14316;51.074;3.704;2022-09-17T07:26:12;7.95;;;1.48;;
26702;SDS011;14316;51.074;3.704;2022-09-17T07:28:40;7.95;;;1.80;;
26702;SDS011;14316;51.074;3.704;2022-09-17T07:31:07;6.25;;;1.38;;
26702;SDS011;14316;51.074;3.704;2022-09-17T07:33:34;9.38;;;2.17;;
26702;SDS011;14316;51.074;3.704;2022-09-17T07:36:02;6.43;;;1.52;;
26702;SDS011;14316;51.074;3.704;2022-09-17T07:38:29;5.28;;;1.50;;
26702;SDS011;14316;51.074;3.704;2022-09-17T07:40:56;5.95;;;1.65;;
26702;SDS011;14316;51.074;3.704;2022-09-17T07:43:27;7.53;;;1.67;;
26702;SDS011;14316;51.074;3.704;2022-09-17T07:45:58;7.20;;;1.30;;
26702;SDS011;14316;51.074;3.704;2022-09-17T07:48:25;7.05;;;1.50;;
26702;SDS011;14316;51.074;3.704;2022-09-17T07:50:51;11.52;;;2.30;;
26702;SDS011;14316;51.074;3.704;2022-09-17T07:53:18;8.30;;;2.17;;
26702;SDS011;14316;51.074;3.704;2022-09-17T07:55:53;7.38;;;1.60;;
26702;SDS011;14316;51.074;3.704;2022-09-17T07:58:21;6.03;;;1.52;;
26702;SDS011;14316;51.074;3.704;2022-09-17T08:00:47;7.93;;;1.75;;
26702;SDS011;14316;51.074;3.704;2022-09-17T08:03:13;4.30;;;1.27;;
26702;SDS011;14316;51.074;3.704;2022-09-17T08:05:39;8.23;;;1.98;;
26702;SDS011;14316;51.074;3.704;2022-09-17T08:08:05;8.55;;;1.80;;
26702;SDS011;14316;51.074;3.704;2022-09-17T08:10:31;8.45;;;1.70;;
26702;SDS011;14316;51.074;3.704;2022-09-17T08:12:57;8.82;;;1.60;;
26702;SDS011;14316;51.074;3.704;2022-09-17T08:15:23;4.20;;;1.52;;
26702;SDS011;14316;51.074;3.704;2022-09-17T08:17:51;10.02;;;1.90;;
26702;SDS011;14316;51.074;3.704;2022-09-17T08:20:17;6.13;;;1.10;;
26702;SDS011;14316;51.074;3.704;2022-09-17T08:22:44;6.97;;;1.42;;
26702;SDS011;14316;51.074;3.704;2022-09-17T08:25:15;4.68;;;1.25;;
26702;SDS011;14316;51.074;3.704;2022-09-17T08:27:41;6.22;;;1.27;;
26702;SDS011;14316;51.074;3.704;2022-09-17T08:30:07;7.22;;;1.13;;
26702;SDS011;14316;51.074;3.704;2022-09-17T08:32:36;6.90;;;1.58;;
26702;SDS011;14316;51.074;3.704;2022-09-17T08:35:02;6.22;;;1.58;;
26702;SDS011;14316;51.074;3.704;2022-09-17T08:37:28;4.50;;;1.10;;
26702;SDS011;14316;51.074;3.704;2022-09-17T08:39:54;3.45;;;1.15;;
26702;SDS011;14316;51.074;3.704;2022-09-17T08:42:27;3.65;;;1.13;;
26702;SDS011;14316;51.074;3.704;2022-09-17T08:45:07;5.43;;;2.03;;
26702;SDS011;14316;51.074;3.704;2022-09-17T08:47:39;4.25;;;1.38;;
26702;SDS011;14316;51.074;3.704;2022-09-17T08:55:59;7.90;;;1.50;;
26702;SDS011;14316;51.074;3.704;2022-09-17T08:58:41;4.27;;;1.03;;
26702;SDS011;14316;51.074;3.704;2022-09-17T09:01:33;5.13;;;1.30;;
26702;SDS011;14316;51.074;3.704;2022-09-17T09:04:55;3.90;;;1.13;;
26702;SDS011;14316;51.074;3.704;2022-09-17T09:07:25;2.92;;;0.80;;
26702;SDS011;14316;51.074;3.704;2022-09-17T09:12:52;4.50;;;0.95;;
26702;SDS011;14316;51.074;3.704;2022-09-17T09:18:38;4.30;;;1.27;;
26702;SDS011;14316;51.074;3.704;2022-09-17T09:21:13;4.13;;;1.70;;
26702;SDS011;14316;51.074;3.704;2022-09-17T09:23:46;5.38;;;1.70;;
26702;SDS011;14316;51.074;3.704;2022-09-17T09:26:28;4.25;;;1.40;;
26702;SDS011;14316;51.074;3.704;2022-09-17T09:31:40;4.40;;;1.50;;
26702;SDS011;14316;51.074;3.704;2022-09-17T09:34:24;4.85;;;1.25;;
26702;SDS011;14316;51.074;3.704;2022-09-17T09:36:53;3.67;;;1.40;;
26702;SDS011;14316;51.074;3.704;2022-09-17T09:39:35;2.17;;;0.82;;
26702;SDS011;14316;51.074;3.704;2022-09-17T09:42:44;4.47;;;1.80;;
26702;SDS011;14316;51.074;3.704;2022-09-17T09:44:51;4.82;;;1.15;;
26702;SDS011;14316;51.074;3.704;2022-09-17T09:58:40;6.45;;;1.35;;
26702;SDS011;14316;51.074;3.704;2022-09-17T10:01:17;6.38;;;1.38;;
26702;SDS011;14316;51.074;3.704;2022-09-17T10:03:47;4.55;;;1.67;;
26702;SDS011;14316;51.074;3.704;2022-09-17T10:06:16;5.05;;;1.98;;
26702;SDS011;14316;51.074;3.704;2022-09-17T10:11:23;9.45;;;2.63;;
26702;SDS011;14316;51.074;3.704;2022-09-17T10:13:50;4.72;;;2.03;;
26702;SDS011;14316;51.074;3.704;2022-09-17T10:21:31;8.07;;;1.73;;
26702;SDS011;14316;51.074;3.704;2022-09-17T10:24:01;6.65;;;1.70;;
26702;SDS011;14316;51.074;3.704;2022-09-17T10:26:32;7.82;;;2.03;;
26702;SDS011;14316;51.074;3.704;2022-09-17T10:29:13;7.70;;;2.17;;
26702;SDS011;14316;51.074;3.704;2022-09-17T10:31:52;6.95;;;2.17;;
26702;SDS011;14316;51.074;3.704;2022-09-17T10:34:23;6.25;;;1.92;;
26702;SDS011;14316;51.074;3.704;2022-09-17T10:36:54;9.98;;;2.10;;
26702;SDS011;14316;51.074;3.704;2022-09-17T10:42:15;8.98;;;2.20;;
26702;SDS011;14316;51.074;3.704;2022-09-17T10:44:50;5.20;;;1.67;;
26702;SDS011;14316;51.074;3.704;2022-09-17T10:47:28;5.90;;;1.25;;
26702;SDS011;14316;51.074;3.704;2022-09-17T10:49:59;4.88;;;1.63;;
26702;SDS011;14316;51.074;3.704;2022-09-17T10:52:37;7.70;;;1.45;;
26702;SDS011;14316;51.074;3.704;2022-09-17T11:01:35;5.28;;;1.38;;
26702;SDS011;14316;51.074;3.704;2022-09-17T11:06:16;3.80;;;1.35;;
26702;SDS011;14316;51.074;3.704;2022-09-17T11:11:31;6.38;;;1.65;;
26702;SDS011;14316;51.074;3.704;2022-09-17T11:14:32;4.18;;;1.98;;
26702;SDS011;14316;51.074;3.704;2022-09-17T11:23:29;6.38;;;2.10;;
26702;SDS011;14316;51.074;3.704;2022-09-17T11:34:52;8.65;;;1.92;;
26702;SDS011;14316;51.074;3.704;2022-09-17T11:37:30;15.43;;;2.50;;
26702;SDS011;14316;51.074;3.704;2022-09-17T11:40:11;8.35;;;2.58;;
26702;SDS011;14316;51.074;3.704;2022-09-17T11:42:53;10.35;;;2.40;;
26702;SDS011;14316;51.074;3.704;2022-09-17T11:47:59;8.48;;;2.63;;
26702;SDS011;14316;51.074;3.704;2022-09-17T11:50:31;7.57;;;2.33;;
26702;SDS011;14316;51.074;3.704;2022-09-17T11:53:20;10.23;;;2.47;;
26702;SDS011;14316;51.074;3.704;2022-09-17T11:56:09;7.07;;;2.10;;
26702;SDS011;14316;51.074;3.704;2022-09-17T11:58:40;5.05;;;1.73;;
26702;SDS011;14316;51.074;3.704;2022-09-17T12:03:52;7.10;;;1.88;;
26702;SDS011;14316;51.074;3.704;2022-09-17T12:06:45;5.05;;;1.80;;
26702;SDS011;14316;51.074;3.704;2022-09-17T12:09:21;6.72;;;1.90;;
26702;SDS011;14316;51.074;3.704;2022-09-17T12:12:02;6.97;;;1.95;;
26702;SDS011;14316;51.074;3.704;2022-09-17T12:14:47;7.63;;;2.10;;
26702;SDS011;14316;51.074;3.704;2022-09-17T12:17:22;5.57;;;2.00;;
26702;SDS011;14316;51.074;3.704;2022-09-17T12:20:22;7.10;;;2.00;;
26702;SDS011;14316;51.074;3.704;2022-09-17T12:23:01;6.35;;;2.13;;
26702;SDS011;14316;51.074;3.704;2022-09-17T12:25:35;8.27;;;2.20;;
26702;SDS011;14316;51.074;3.704;2022-09-17T12:28:42;11.05;;;2.00;;
26702;SDS011;14316;51.074;3.704;2022-09-17T12:31:31;6.90;;;2.40;;
26702;SDS011;14316;51.074;3.704;2022-09-17T12:36:58;8.98;;;2.53;;
26702;SDS011;14316;51.074;3.704;2022-09-17T12:43:14;10.55;;;2.35;;
26702;SDS011;14316;51.074;3.704;2022-09-17T12:51:50;8.25;;;2.20;;
26702;SDS011;14316;51.074;3.704;2022-09-17T12:59:40;6.38;;;1.80;;
26702;SDS011;14316;51.074;3.704;2022-09-17T13:02:21;7.05;;;1.70;;
26702;SDS011;14316;51.074;3.704;2022-09-17T13:16:16;4.38;;;1.77;;
26702;SDS011;14316;51.074;3.704;2022-09-17T13:21:41;5.60;;;1.80;;
26702;SDS011;14316;51.074;3.704;2022-09-17T13:25:00;6.97;;;1.80;;
26702;SDS011;14316;51.074;3.704;2022-09-17T13:27:35;6.90;;;1.95;;
26702;SDS011;14316;51.074;3.704;2022-09-17T13:30:04;5.22;;;1.55;;
26702;SDS011;14316;51.074;3.704;2022-09-17T13:37:38;4.55;;;1.55;;
26702;SDS011;14316;51.074;3.704;2022-09-17T13:40:30;5.00;;;1.58;;
26702;SDS011;14316;51.074;3.704;2022-09-17T13:45:32;5.63;;;1.58;;
26702;SDS011;14316;51.074;3.704;2022-09-17T13:48:19;5.30;;;1.50;;
26702;SDS011;14316;51.074;3.704;2022-09-17T13:50:47;6.60;;;1.60;;
26702;SDS011;14316;51.074;3.704;2022-09-17T13:55:58;3.85;;;1.20;;
26702;SDS011;14316;51.074;3.704;2022-09-17T14:06:41;1.77;;;0.50;;
26702;SDS011;14316;51.074;3.704;2022-09-17T14:29:38;5.55;;;1.60;;
26702;SDS011;14316;51.074;3.704;2022-09-17T14:32:15;3.78;;;1.45;;
26702;SDS011;14316;51.074;3.704;2022-09-17T14:35:01;3.78;;;1.13;;
26702;SDS011;14316;51.074;3.704;2022-09-17T14:37:37;4.13;;;1.30;;
26702;SDS011;14316;51.074;3.704;2022-09-17T14:40:07;3.08;;;1.15;;
26702;SDS011;14316;51.074;3.704;2022-09-17T14:42:41;4.25;;;1.10;;
26702;SDS011;14316;51.074;3.704;2022-09-17T14:45:24;3.80;;;1.00;;
26702;SDS011;14316;51.074;3.704;2022-09-17T14:53:37;6.15;;;1.40;;
26702;SDS011;14316;51.074;3.704;2022-09-17T14:56:03;6.93;;;1.77;;
26702;SDS011;14316;51.074;3.704;2022-09-17T14:58:34;5.55;;;1.77;;
26702;SDS011;14316;51.074;3.704;2022-09-17T15:01:04;5.13;;;2.33;;
26702;SDS011;14316;51.074;3.704;2022-09-17T15:03:30;4.20;;;1.58;;
26702;SDS011;14316;51.074;3.704;2022-09-17T15:05:56;4.10;;;1.00;;
26702;SDS011;14316;51.074;3.704;2022-09-17T15:08:23;4.25;;;1.27;;
26702;SDS011;14316;51.074;3.704;2022-09-17T15:11:05;3.33;;;1.25;;
26702;SDS011;14316;51.074;3.704;2022-09-17T15:13:49;5.30;;;1.60;;
26702;SDS011;14316;51.074;3.704;2022-09-17T15:16:26;3.53;;;1.40;;
26702;SDS011;14316;51.074;3.704;2022-09-17T15:18:55;4.68;;;1.48;;
26702;SDS011;14316;51.074;3.704;2022-09-17T15:21:29;4.72;;;1.60;;
26702;SDS011;14316;51.074;3.704;2022-09-17T15:27:25;5.25;;;1.55;;
26702;SDS011;14316;51.074;3.704;2022-09-17T15:29:56;4.43;;;1.60;;
26702;SDS011;14316;51.074;3.704;2022-09-17T15:32:26;6.50;;;1.85;;
26702;SDS011;14316;51.074;3.704;2022-09-17T15:40:15;8.15;;;2.08;;
26702;SDS011;14316;51.074;3.704;2022-09-17T15:45:46;5.10;;;2.10;;
26702;SDS011;14316;51.074;3.704;2022-09-17T15:50:56;6.90;;;2.40;;
26702;SDS011;14316;51.074;3.704;2022-09-17T15:56:02;5.88;;;2.80;;
26702;SDS011;14316;51.074;3.704;2022-09-17T16:08:54;9.43;;;2.88;;
26702;SDS011;14316;51.074;3.704;2022-09-17T16:11:28;6.55;;;2.80;;
26702;SDS011;14316;51.074;3.704;2022-09-17T16:13:56;9.50;;;2.67;;
26702;SDS011;14316;51.074;3.704;2022-09-17T16:16:29;9.32;;;2.80;;
26702;SDS011;14316;51.074;3.704;2022-09-17T16:18:59;9.23;;;2.58;;
26702;SDS011;14316;51.074;3.704;2022-09-17T16:21:25;8.80;;;2.60;;
26702;SDS011;14316;51.074;3.704;2022-09-17T16:23:51;6.22;;;2.13;;
26702;SDS011;14316;51.074;3.704;2022-09-17T16:26:23;6.40;;;2.00;;
26702;SDS011;14316;51.074;3.704;2022-09-17T16:28:53;5.87;;;1.77;;
26702;SDS011;14316;51.074;3.704;2022-09-17T16:31:23;5.63;;;2.20;;
26702;SDS011;14316;51.074;3.704;2022-09-17T16:33:50;6.82;;;2.10;;
26702;SDS011;14316;51.074;3.704;2022-09-17T16:36:16;9.65;;;2.70;;
26702;SDS011;14316;51.074;3.704;2022-09-17T16:38:45;6.05;;;2.72;;
26702;SDS011;14316;51.074;3.704;2022-09-17T16:41:11;9.25;;;3.40;;
26702;SDS011;14316;51.074;3.704;2022-09-17T16:43:37;9.18;;;3.53;;
26702;SDS011;14316;51.074;3.704;2022-09-17T16:46:05;9.38;;;4.00;;
26702;SDS011;14316;51.074;3.704;2022-09-17T16:48:32;9.93;;;4.93;;
26702;SDS011;14316;51.074;3.704;2022-09-17T16:50:58;8.88;;;3.00;;
26702;SDS011;14316;51.074;3.704;2022-09-17T16:53:28;11.75;;;2.75;;
26702;SDS011;14316;51.074;3.704;2022-09-17T16:55:53;6.43;;;2.00;;
26702;SDS011;14316;51.074;3.704;2022-09-17T16:58:19;9.82;;;2.83;;
26702;SDS011;14316;51.074;3.704;2022-09-17T17:00:44;6.63;;;2.40;;
26702;SDS011;14316;51.074;3.704;2022-09-17T17:03:16;5.80;;;2.15;;
26702;SDS011;14316;51.074;3.704;2022-09-17T17:05:42;5.93;;;2.28;;
26702;SDS011;14316;51.074;3.704;2022-09-17T17:08:08;11.50;;;3.30;;
26702;SDS011;14316;51.074;3.704;2022-09-17T17:10:40;7.35;;;2.47;;
26702;SDS011;14316;51.074;3.704;2022-09-17T17:13:06;7.53;;;2.20;;
26702;SDS011;14316;51.074;3.704;2022-09-17T17:15:32;10.00;;;2.78;;
26702;SDS011;14316;51.074;3.704;2022-09-17T17:17:57;7.70;;;2.70;;
26702;SDS011;14316;51.074;3.704;2022-09-17T17:20:23;7.78;;;2.92;;
26702;SDS011;14316;51.074;3.704;2022-09-17T17:22:49;7.85;;;2.25;;
26702;SDS011;14316;51.074;3.704;2022-09-17T17:25:16;6.85;;;2.72;;
26702;SDS011;14316;51.074;3.704;2022-09-17T17:27:42;7.50;;;2.63;;
26702;SDS011;14316;51.074;3.704;2022-09-17T17:30:08;7.60;;;2.72;;
26702;SDS011;14316;51.074;3.704;2022-09-17T17:32:40;6.35;;;2.70;;
26702;SDS011;14316;51.074;3.704;2022-09-17T17:35:06;8.75;;;2.63;;
26702;SDS011;14316;51.074;3.704;2022-09-17T17:37:32;11.13;;;2.97;;
26702;SDS011;14316;51.074;3.704;2022-09-17T17:39:58;5.75;;;2.10;;
26702;SDS011;14316;51.074;3.704;2022-09-17T17:42:24;10.00;;;2.58;;
26702;SDS011;14316;51.074;3.704;2022-09-17T17:44:50;8.27;;;2.33;;
26702;SDS011;14316;51.074;3.704;2022-09-17T17:47:15;9.45;;;2.50;;
26702;SDS011;14316;51.074;3.704;2022-09-17T17:49:41;5.20;;;2.63;;
26702;SDS011;14316;51.074;3.704;2022-09-17T17:52:08;5.85;;;2.65;;
26702;SDS011;14316;51.074;3.704;2022-09-17T17:54:34;5.93;;;2.10;;
26702;SDS011;14316;51.074;3.704;2022-09-17T17:56:59;8.40;;;2.50;;
26702;SDS011;14316;51.074;3.704;2022-09-17T17:59:25;6.80;;;2.33;;
26702;SDS011;14316;51.074;3.704;2022-09-17T18:01:51;7.63;;;2.15;;
26702;SDS011;14316;51.074;3.704;2022-09-17T18:04:17;10.02;;;2.67;;
26702;SDS011;14316;51.074;3.704;2022-09-17T18:06:42;7.97;;;2.67;;
26702;SDS011;14316;51.074;3.704;2022-09-17T18:09:08;11.05;;;3.20;;
26702;SDS011;14316;51.074;3.704;2022-09-17T18:11:34;6.32;;;2.40;;
26702;SDS011;14316;51.074;3.704;2022-09-17T18:14:00;5.63;;;2.22;;
26702;SDS011;14316;51.074;3.704;2022-09-17T18:16:26;7.55;;;2.50;;
26702;SDS011;14316;51.074;3.704;2022-09-17T18:18:53;9.18;;;3.13;;
26702;SDS011;14316;51.074;3.704;2022-09-17T18:21:21;7.30;;;2.53;;
26702;SDS011;14316;51.074;3.704;2022-09-17T18:23:50;7.72;;;2.78;;
26702;SDS011;14316;51.074;3.704;2022-09-17T18:26:17;8.85;;;2.90;;
26702;SDS011;14316;51.074;3.704;2022-09-17T18:28:44;8.70;;;2.60;;
26702;SDS011;14316;51.074;3.704;2022-09-17T18:31:21;9.18;;;2.67;;
26702;SDS011;14316;51.074;3.704;2022-09-17T18:33:49;7.40;;;2.40;;
26702;SDS011;14316;51.074;3.704;2022-09-17T18:36:38;10.07;;;2.67;;
26702;SDS011;14316;51.074;3.704;2022-09-17T18:39:05;8.50;;;2.72;;
26702;SDS011;14316;51.074;3.704;2022-09-17T18:41:37;6.43;;;2.50;;
26702;SDS011;14316;51.074;3.704;2022-09-17T18:44:08;6.38;;;2.28;;